Time;durP1;ratioP1;P1;durP2;ratioP2;P2;SDS_P1;SDS_P2;PMS_P1;PMS_P2;Temp;Humidity;BMP_temperature;BMP_pressure;BME280_temperature;BME280_humidity;BME280_pressure;Samples;Min_cycle;Max_cycle;Signal;HPM_P1;HPM_P2
2023/05/03 00:02:04;;;;;;;9.23;6.78;;;12.10;99.90;;;;;;5053615;28;20364;-76
2023/05/03 00:04:30;;;;;;;10.07;7.05;;;12.00;99.90;;;;;;5054832;28;20033;-76
2023/05/03 00:06:56;;;;;;;11.27;7.32;;;12.00;99.90;;;;;;5053591;28;20359;-76
2023/05/03 00:09:22;;;;;;;11.32;8.35;;;12.00;99.90;;;;;;5054674;28;20030;-76
2023/05/03 00:11:48;;;;;;;13.80;9.38;;;12.10;99.90;;;;;;5054022;28;20490;-76
2023/05/03 00:14:14;;;;;;;11.15;9.43;;;12.10;99.90;;;;;;5054076;28;20103;-76
2023/05/03 00:16:40;;;;;;;14.88;10.38;;;12.10;99.90;;;;;;5053838;28;20021;-75
2023/05/03 00:19:06;;;;;;;11.98;9.35;;;12.10;99.90;;;;;;5035412;28;20493;-75
2023/05/03 00:21:32;;;;;;;13.88;10.48;;;12.10;99.90;;;;;;5035814;28;20116;-75
2023/05/03 00:23:57;;;;;;;14.43;9.30;;;12.10;99.90;;;;;;5053362;28;20036;-76
2023/05/03 00:26:25;;;;;;;11.63;8.88;;;12.10;99.90;;;;;;5053829;28;20592;-75
2023/05/03 00:28:51;;;;;;;14.75;8.93;;;12.10;99.90;;;;;;5053407;28;20052;-76
2023/05/03 00:31:17;;;;;;;12.10;9.15;;;12.10;99.90;;;;;;5035875;28;20029;-75
2023/05/03 00:33:42;;;;;;;13.70;9.63;;;12.10;99.90;;;;;;5053310;28;20036;-76
2023/05/03 00:36:09;;;;;;;15.40;10.05;;;12.10;99.90;;;;;;5053336;28;20029;-76
2023/05/03 00:38:35;;;;;;;10.85;9.23;;;12.10;99.90;;;;;;5053646;28;20074;-76
2023/05/03 00:41:02;;;;;;;11.23;9.13;;;12.10;99.90;;;;;;5053528;28;20040;-76
2023/05/03 00:43:28;;;;;;;12.27;9.18;;;12.10;99.90;;;;;;5053763;28;20029;-75
2023/05/03 00:45:54;;;;;;;13.70;9.82;;;12.10;99.90;;;;;;5052820;28;20455;-75
2023/05/03 00:48:20;;;;;;;12.55;9.07;;;12.10;99.90;;;;;;5053464;28;20021;-75
2023/05/03 00:50:47;;;;;;;12.68;9.48;;;12.20;99.90;;;;;;5052748;28;20095;-76
2023/05/03 00:53:13;;;;;;;14.07;9.98;;;12.20;99.90;;;;;;5053275;28;20025;-76
2023/05/03 00:55:40;;;;;;;13.25;9.63;;;12.10;99.90;;;;;;5035708;28;20037;-76
2023/05/03 00:58:06;;;;;;;12.93;9.20;;;12.10;99.90;;;;;;5052804;28;20032;-76
2023/05/03 01:00:32;;;;;;;14.18;8.95;;;12.10;99.90;;;;;;5052964;28;20025;-76
2023/05/03 01:02:58;;;;;;;12.52;9.20;;;12.10;99.90;;;;;;5052723;28;20025;-76
2023/05/03 01:05:25;;;;;;;12.88;8.75;;;12.20;99.90;;;;;;5053100;28;20037;-76
2023/05/03 01:08:09;;;;;;;14.10;9.48;;;12.20;99.90;;;;;;5052322;28;20028;-76
2023/05/03 01:10:46;;;;;;;11.75;8.10;;;12.20;99.90;;;;;;5053294;28;20028;-76
2023/05/03 01:13:27;;;;;;;13.75;9.63;;;12.20;99.90;;;;;;5052517;28;20033;-76
2023/05/03 01:15:55;;;;;;;11.50;8.40;;;12.10;99.90;;;;;;5034974;28;20100;-76
2023/05/03 01:18:30;;;;;;;9.98;8.25;;;12.10;99.90;;;;;;5035247;28;20124;-75
2023/05/03 01:20:59;;;;;;;10.70;7.57;;;12.00;99.90;;;;;;5052037;28;20056;-76
2023/05/03 01:23:35;;;;;;;9.77;8.25;;;12.00;99.90;;;;;;5052900;28;20021;-76
2023/05/03 01:26:23;;;;;;;9.32;7.60;;;12.00;99.90;;;;;;5052685;28;20045;-76
2023/05/03 01:28:49;;;;;;;10.27;7.85;;;12.10;99.90;;;;;;5052297;28;20484;-76
2023/05/03 01:31:43;;;;;;;10.55;7.70;;;12.10;99.90;;;;;;5052963;28;20033;-76
2023/05/03 01:34:50;;;;;;;12.13;8.52;;;12.10;99.90;;;;;;5052404;28;20080;-76
2023/05/03 01:37:17;;;;;;;8.85;7.32;;;12.10;99.90;;;;;;5050289;28;20041;-76
2023/05/03 01:39:48;;;;;;;9.70;7.50;;;12.20;99.90;;;;;;5052728;28;20116;-76
2023/05/03 01:42:14;;;;;;;12.40;8.15;;;12.20;99.90;;;;;;5052875;28;20378;-76
2023/05/03 01:44:41;;;;;;;10.35;7.63;;;12.30;99.90;;;;;;5052807;28;20040;-76
2023/05/03 01:47:08;;;;;;;9.88;7.50;;;12.30;99.90;;;;;;5052232;28;20207;-76
2023/05/03 01:49:34;;;;;;;9.20;7.47;;;12.30;99.90;;;;;;5052576;28;20028;-76
2023/05/03 01:52:00;;;;;;;8.77;7.22;;;12.40;99.90;;;;;;5051767;28;20032;-76
2023/05/03 01:54:25;;;;;;;11.20;7.63;;;12.40;99.90;;;;;;5052178;28;20235;-76
2023/05/03 01:56:51;;;;;;;9.98;8.18;;;12.40;99.90;;;;;;5052039;28;20061;-76
2023/05/03 01:59:17;;;;;;;8.05;7.25;;;12.40;99.90;;;;;;5034742;28;20029;-76
2023/05/03 02:01:42;;;;;;;10.82;7.50;;;12.40;99.90;;;;;;5052357;28;20028;-75
2023/05/03 02:04:09;;;;;;;10.57;7.13;;;12.40;99.90;;;;;;5052172;28;20663;-75
2023/05/03 02:06:35;;;;;;;9.70;7.60;;;12.40;99.90;;;;;;5034663;28;20021;-75
2023/05/03 02:09:01;;;;;;;9.43;7.75;;;12.40;99.90;;;;;;5051973;28;20028;-76
2023/05/03 02:11:27;;;;;;;11.23;8.85;;;12.40;99.90;;;;;;5052283;28;20029;-76
2023/05/03 02:13:52;;;;;;;13.90;10.25;;;12.30;99.90;;;;;;5051446;28;20032;-76
2023/05/03 02:16:18;;;;;;;13.55;10.15;;;12.30;99.90;;;;;;5052286;28;20029;-76
2023/05/03 02:18:44;;;;;;;18.00;11.25;;;12.20;99.90;;;;;;5052040;28;20025;-76
2023/05/03 02:21:10;;;;;;;15.48;12.20;;;12.10;99.90;;;;;;5051619;28;20031;-76
2023/05/03 02:23:36;;;;;;;15.48;12.30;;;12.10;99.90;;;;;;5052037;28;20083;-76
2023/05/03 02:26:02;;;;;;;17.90;12.48;;;12.00;99.90;;;;;;5036166;28;20027;-76
2023/05/03 02:28:27;;;;;;;19.33;13.68;;;12.00;99.90;;;;;;5037779;28;20056;-76
2023/05/03 02:30:53;;;;;;;18.27;12.48;;;11.90;99.90;;;;;;5055141;28;20060;-76
2023/05/03 02:33:21;;;;;;;15.07;11.70;;;11.80;99.90;;;;;;5055542;28;20045;-75
2023/05/03 02:35:47;;;;;;;18.35;12.55;;;11.80;99.90;;;;;;5055865;28;20074;-75
2023/05/03 02:38:12;;;;;;;18.52;13.40;;;11.80;99.90;;;;;;5055351;28;20032;-76
2023/05/03 02:40:38;;;;;;;15.85;12.68;;;11.80;99.90;;;;;;5055916;28;20470;-76
2023/05/03 02:43:04;;;;;;;20.08;13.02;;;11.80;99.90;;;;;;5055412;28;20021;-76
2023/05/03 02:45:30;;;;;;;20.13;13.30;;;11.90;99.90;;;;;;5055809;28;20390;-76
2023/05/03 02:47:55;;;;;;;14.75;11.23;;;11.90;99.90;;;;;;5055232;28;20029;-76
2023/05/03 02:50:21;;;;;;;17.27;13.27;;;11.90;99.90;;;;;;5055574;28;20057;-75
2023/05/03 02:52:47;;;;;;;17.52;12.18;;;11.90;99.90;;;;;;5055510;28;20036;-76
2023/05/03 02:55:12;;;;;;;17.52;12.07;;;11.80;99.90;;;;;;5054904;28;20029;-75
2023/05/03 02:57:38;;;;;;;18.02;12.38;;;11.90;99.90;;;;;;5055672;28;20041;-76
2023/05/03 03:00:05;;;;;;;14.48;11.25;;;11.90;99.90;;;;;;5036915;28;20029;-76
2023/05/03 03:02:31;;;;;;;16.25;12.07;;;11.90;99.90;;;;;;5037833;28;20025;-76
2023/05/03 03:04:56;;;;;;;16.33;11.93;;;12.00;99.90;;;;;;5054886;28;20036;-76
2023/05/03 03:07:22;;;;;;;13.73;11.15;;;12.00;99.90;;;;;;5055227;28;20024;-75
2023/05/03 03:09:48;;;;;;;15.73;11.88;;;12.00;99.90;;;;;;5055286;28;20029;-75
2023/05/03 03:12:14;;;;;;;16.25;10.82;;;12.00;99.90;;;;;;5037039;28;20033;-75
2023/05/03 03:14:40;;;;;;;18.00;11.05;;;12.00;99.90;;;;;;5054951;28;20064;-75
2023/05/03 03:17:09;;;;;;;14.20;11.25;;;12.00;99.90;;;;;;5036905;28;20051;-75
2023/05/03 03:19:35;;;;;;;15.30;11.63;;;12.00;99.90;;;;;;5055189;28;20520;-76
2023/05/03 03:22:00;;;;;;;17.52;11.82;;;11.90;99.90;;;;;;5054217;28;20024;-76
2023/05/03 03:24:26;;;;;;;16.33;12.25;;;12.00;99.90;;;;;;5055158;28;20045;-75
2023/05/03 03:26:52;;;;;;;16.27;11.75;;;12.00;99.90;;;;;;5055308;28;20029;-75
2023/05/03 03:29:17;;;;;;;16.85;11.60;;;11.90;99.90;;;;;;5054756;28;20470;-76
2023/05/03 03:31:43;;;;;;;14.93;11.43;;;11.90;99.90;;;;;;5036937;28;20531;-76
2023/05/03 03:34:12;;;;;;;19.60;12.48;;;11.90;99.90;;;;;;5054170;28;20036;-76
2023/05/03 03:36:38;;;;;;;15.13;11.77;;;11.90;99.90;;;;;;5054156;28;20111;-76
2023/05/03 03:39:04;;;;;;;20.17;11.90;;;11.90;99.90;;;;;;5036433;28;20470;-76
2023/05/03 03:41:31;;;;;;;15.02;11.15;;;11.90;99.90;;;;;;5054754;28;20056;-76
2023/05/03 03:43:57;;;;;;;15.85;11.52;;;11.90;99.90;;;;;;5054453;28;20059;-76
2023/05/03 03:46:23;;;;;;;16.02;11.32;;;11.90;99.90;;;;;;5055092;28;20104;-75
2023/05/03 03:48:49;;;;;;;16.02;11.07;;;12.00;99.90;;;;;;5054602;28;20029;-76
2023/05/03 03:51:15;;;;;;;14.25;10.63;;;12.00;99.90;;;;;;5053893;28;20017;-75
2023/05/03 03:53:41;;;;;;;12.35;10.30;;;12.00;99.90;;;;;;5053986;28;20035;-76
2023/05/03 03:56:07;;;;;;;12.90;9.70;;;12.00;99.90;;;;;;5036005;28;20056;-76
2023/05/03 03:58:33;;;;;;;11.43;9.48;;;12.00;99.90;;;;;;5054157;28;20055;-76
2023/05/03 04:00:59;;;;;;;10.88;8.52;;;12.00;99.90;;;;;;5053909;28;20021;-76
2023/05/03 04:03:25;;;;;;;11.88;8.02;;;12.00;99.90;;;;;;5054649;28;20020;-76
2023/05/03 04:05:51;;;;;;;12.57;8.20;;;11.90;99.90;;;;;;5036432;28;20056;-76
2023/05/03 04:08:17;;;;;;;8.68;7.78;;;12.00;99.90;;;;;;5035721;28;20344;-75
2023/05/03 04:10:43;;;;;;;11.55;8.10;;;12.00;99.90;;;;;;5054198;28;20071;-75
2023/05/03 04:13:09;;;;;;;12.57;8.18;;;12.00;99.90;;;;;;5035746;28;20025;-76
2023/05/03 04:15:35;;;;;;;10.07;8.27;;;12.00;99.90;;;;;;5053993;28;20459;-75
2023/05/03 04:18:00;;;;;;;13.32;8.68;;;12.00;99.90;;;;;;5035477;28;20081;-75
2023/05/03 04:20:26;;;;;;;10.48;6.97;;;12.00;99.90;;;;;;5053440;28;20100;-76
2023/05/03 04:22:52;;;;;;;11.55;6.93;;;12.00;99.90;;;;;;5035858;28;20021;-76
2023/05/03 04:25:18;;;;;;;10.65;7.38;;;12.00;99.90;;;;;;5053245;28;20069;-75
2023/05/03 04:27:44;;;;;;;11.60;7.50;;;12.00;99.90;;;;;;5053758;28;20029;-76
2023/05/03 04:30:13;;;;;;;9.45;6.93;;;12.10;99.90;;;;;;5052951;28;20509;-75
2023/05/03 04:32:39;;;;;;;9.38;8.00;;;12.10;99.90;;;;;;5051167;28;20036;-76
2023/05/03 04:35:09;;;;;;;11.95;8.05;;;12.00;99.90;;;;;;5052418;28;20032;-75
2023/05/03 04:37:35;;;;;;;14.05;7.82;;;12.00;99.90;;;;;;5053556;28;20025;-76
2023/05/03 04:40:03;;;;;;;13.40;8.80;;;12.00;99.90;;;;;;5035223;28;20021;-76
2023/05/03 04:42:29;;;;;;;14.00;8.07;;;12.00;99.90;;;;;;5035781;28;20056;-76
2023/05/03 04:44:55;;;;;;;14.75;8.32;;;12.00;99.90;;;;;;5035429;28;20431;-75
2023/05/03 04:47:21;;;;;;;15.35;8.95;;;12.00;99.90;;;;;;5052598;28;20035;-75
2023/05/03 04:49:47;;;;;;;14.50;8.88;;;12.00;99.90;;;;;;5052896;28;20029;-75
2023/05/03 04:52:13;;;;;;;13.65;8.68;;;12.00;99.90;;;;;;5052538;28;20032;-75
2023/05/03 04:54:38;;;;;;;13.45;9.27;;;12.00;99.90;;;;;;5053272;28;20028;-76
2023/05/03 04:57:04;;;;;;;11.63;9.40;;;12.00;99.90;;;;;;5053115;28;20082;-75
2023/05/03 04:59:30;;;;;;;13.18;8.75;;;11.90;99.90;;;;;;5053073;28;20108;-76
2023/05/03 05:01:56;;;;;;;12.63;8.60;;;11.90;99.90;;;;;;5053338;28;20033;-75
2023/05/03 05:04:22;;;;;;;11.40;8.43;;;12.00;99.90;;;;;;5052693;28;20025;-76
2023/05/03 05:06:50;;;;;;;14.25;8.85;;;12.00;99.90;;;;;;5052619;28;20438;-75
2023/05/03 05:09:21;;;;;;;15.48;9.43;;;12.00;99.90;;;;;;5052525;28;20054;-76
2023/05/03 05:11:47;;;;;;;12.35;9.20;;;12.00;99.90;;;;;;5053133;28;20017;-75
2023/05/03 05:14:13;;;;;;;11.68;8.80;;;12.00;99.90;;;;;;5052415;28;20025;-76
2023/05/03 05:16:39;;;;;;;11.07;8.82;;;12.10;99.90;;;;;;5035247;28;20028;-76
2023/05/03 05:19:05;;;;;;;13.57;9.45;;;12.10;99.90;;;;;;5052349;28;20075;-75
2023/05/03 05:21:31;;;;;;;13.80;9.50;;;12.10;99.90;;;;;;5052877;28;20060;-75
2023/05/03 05:23:56;;;;;;;14.60;8.60;;;12.10;99.90;;;;;;5052552;28;20040;-76
2023/05/03 05:26:22;;;;;;;12.10;8.48;;;12.20;99.90;;;;;;5051943;28;20021;-75
2023/05/03 05:28:48;;;;;;;13.18;8.68;;;12.20;99.90;;;;;;5052733;28;20539;-76
2023/05/03 05:31:14;;;;;;;11.38;8.40;;;12.20;99.90;;;;;;5034370;28;20369;-76
2023/05/03 05:33:40;;;;;;;12.55;9.20;;;12.30;99.90;;;;;;5052959;28;20104;-76
2023/05/03 05:36:06;;;;;;;11.93;8.95;;;12.30;99.90;;;;;;5051985;28;20048;-76
2023/05/03 05:38:32;;;;;;;11.88;8.45;;;12.30;99.90;;;;;;5052983;28;20033;-76
2023/05/03 05:40:57;;;;;;;15.55;9.70;;;12.40;99.90;;;;;;5053011;28;20102;-76
2023/05/03 05:43:23;;;;;;;13.00;9.13;;;12.40;99.90;;;;;;5052423;28;20029;-76
2023/05/03 05:45:49;;;;;;;14.15;8.85;;;12.50;99.90;;;;;;5053338;28;20039;-75
2023/05/03 05:48:15;;;;;;;11.60;9.00;;;12.60;99.90;;;;;;5034283;28;20025;-76
2023/05/03 05:50:41;;;;;;;12.73;9.93;;;12.60;99.90;;;;;;5052604;28;20458;-76
2023/05/03 05:53:08;;;;;;;15.48;9.88;;;12.60;99.90;;;;;;5052073;28;20022;-76
2023/05/03 05:55:34;;;;;;;19.40;9.40;;;12.70;99.90;;;;;;5052224;28;20029;-76
2023/05/03 05:58:00;;;;;;;14.68;9.95;;;12.70;99.90;;;;;;5052316;28;20040;-75
2023/05/03 06:00:26;;;;;;;13.80;8.88;;;12.80;99.90;;;;;;5054825;28;20448;-76
2023/05/03 06:02:51;;;;;;;13.25;8.85;;;12.80;99.90;;;;;;5055926;28;20108;-76
2023/05/03 06:05:17;;;;;;;16.52;10.02;;;12.90;99.90;;;;;;5055949;28;20099;-76
2023/05/03 06:07:43;;;;;;;14.60;9.88;;;12.80;99.90;;;;;;5056090;28;20200;-75
2023/05/03 06:10:09;;;;;;;13.40;9.55;;;12.90;99.90;;;;;;5055805;28;20071;-76
2023/05/03 06:12:35;;;;;;;14.38;10.63;;;12.80;99.90;;;;;;5038119;28;20029;-76
2023/05/03 06:15:02;;;;;;;16.90;10.55;;;12.80;99.90;;;;;;5055589;28;20037;-75
2023/05/03 06:17:28;;;;;;;25.13;10.68;;;12.90;99.90;;;;;;5055480;28;20553;-76
2023/05/03 06:19:54;;;;;;;15.70;10.98;;;12.80;99.90;;;;;;5056033;28;20104;-76
2023/05/03 06:22:19;;;;;;;17.33;10.68;;;12.80;99.90;;;;;;5037285;28;20035;-75
2023/05/03 06:24:45;;;;;;;18.20;10.90;;;12.90;99.90;;;;;;5055899;28;20433;-76
2023/05/03 06:27:11;;;;;;;14.55;11.00;;;12.90;99.90;;;;;;5054657;28;20025;-76
2023/05/03 06:29:37;;;;;;;19.23;11.85;;;12.90;99.90;;;;;;5055264;28;20406;-76
2023/05/03 06:32:03;;;;;;;19.98;11.90;;;12.90;99.90;;;;;;5037549;28;20347;-76
2023/05/03 06:34:29;;;;;;;15.93;11.00;;;12.90;99.90;;;;;;5054797;28;20040;-76
2023/05/03 06:36:55;;;;;;;16.85;11.40;;;12.90;99.90;;;;;;5037616;28;20025;-76
2023/05/03 06:39:21;;;;;;;19.25;11.85;;;12.90;99.90;;;;;;5054927;28;20033;-76
2023/05/03 06:41:46;;;;;;;17.67;10.68;;;13.00;99.90;;;;;;5055717;28;20033;-76
2023/05/03 06:44:12;;;;;;;12.45;10.65;;;13.00;99.90;;;;;;5054660;28;20133;-75
2023/05/03 06:46:38;;;;;;;16.52;11.27;;;13.10;99.90;;;;;;5037464;28;20075;-76
2023/05/03 06:49:03;;;;;;;13.02;10.45;;;13.10;99.90;;;;;;5037319;28;20060;-76
2023/05/03 06:51:31;;;;;;;14.43;10.68;;;13.30;99.90;;;;;;5054633;28;20020;-76
2023/05/03 06:54:00;;;;;;;15.93;11.10;;;13.40;99.90;;;;;;5054528;28;20033;-76
2023/05/03 06:56:27;;;;;;;17.48;10.13;;;13.40;99.90;;;;;;5054124;28;20041;-76
2023/05/03 06:58:53;;;;;;;15.65;10.65;;;13.40;99.90;;;;;;5054686;28;20041;-76
2023/05/03 07:01:19;;;;;;;15.02;10.00;;;13.60;99.90;;;;;;5019674;28;20025;-76
2023/05/03 07:03:45;;;;;;;14.70;9.85;;;13.60;99.90;;;;;;5054937;28;20032;-76
2023/05/03 07:06:12;;;;;;;14.15;10.00;;;13.60;99.90;;;;;;5054372;28;20100;-76
2023/05/03 07:08:37;;;;;;;15.20;10.00;;;13.70;99.90;;;;;;5036755;28;20551;-76
2023/05/03 07:11:03;;;;;;;19.05;9.88;;;13.70;99.90;;;;;;5053931;28;20017;-76
2023/05/03 07:13:30;;;;;;;14.68;9.65;;;13.80;99.90;;;;;;5054296;28;20021;-75
2023/05/03 07:15:56;;;;;;;13.07;9.20;;;13.80;99.90;;;;;;5054842;28;20079;-75
2023/05/03 07:18:21;;;;;;;16.40;9.35;;;13.70;99.90;;;;;;5054149;28;20122;-76
2023/05/03 07:20:47;;;;;;;14.13;10.13;;;13.80;99.90;;;;;;5055411;28;20498;-75
2023/05/03 07:23:14;;;;;;;15.02;9.77;;;13.80;99.90;;;;;;5035840;28;20033;-75
2023/05/03 07:25:41;;;;;;;11.40;8.85;;;13.80;99.90;;;;;;5054752;28;20039;-75
2023/05/03 07:28:07;;;;;;;14.80;8.85;;;13.80;99.90;;;;;;5054148;28;20434;-75
2023/05/03 07:30:33;;;;;;;12.25;8.10;;;13.80;99.90;;;;;;5054135;28;20029;-75
2023/05/03 07:32:58;;;;;;;10.45;7.57;;;13.80;99.90;;;;;;5055009;28;20057;-75
2023/05/03 07:35:26;;;;;;;10.48;7.50;;;13.80;99.90;;;;;;5054418;28;20037;-76
2023/05/03 07:37:51;;;;;;;11.38;7.30;;;13.80;99.90;;;;;;5054409;28;20029;-75
2023/05/03 07:40:18;;;;;;;12.65;7.30;;;13.80;99.90;;;;;;5053421;28;20029;-75
2023/05/03 07:42:44;;;;;;;10.20;7.40;;;13.70;99.90;;;;;;5054733;28;20032;-75
2023/05/03 07:45:09;;;;;;;12.15;7.00;;;13.70;99.90;;;;;;5054407;28;20060;-76
2023/05/03 07:47:38;;;;;;;14.93;7.18;;;13.70;99.90;;;;;;5053985;28;20029;-75
2023/05/03 07:50:05;;;;;;;12.40;6.53;;;13.70;99.90;;;;;;5036673;28;20458;-75
2023/05/03 07:52:36;;;;;;;11.43;6.63;;;13.70;99.90;;;;;;5053418;28;20070;-75
2023/05/03 07:55:02;;;;;;;10.65;6.10;;;13.70;99.90;;;;;;5053840;28;20033;-75
2023/05/03 07:57:28;;;;;;;7.90;5.82;;;13.80;99.90;;;;;;5053434;28;20029;-75
2023/05/03 07:59:54;;;;;;;11.27;6.18;;;13.70;99.90;;;;;;5053743;28;20025;-75
2023/05/03 08:02:20;;;;;;;8.90;5.70;;;13.80;99.90;;;;;;5053229;28;20044;-75
2023/05/03 08:04:46;;;;;;;13.32;6.03;;;13.70;99.90;;;;;;5054116;28;20029;-75
2023/05/03 08:07:12;;;;;;;13.20;5.93;;;13.80;99.90;;;;;;5054054;28;20025;-75
2023/05/03 08:09:38;;;;;;;10.43;5.97;;;13.70;99.90;;;;;;5053817;28;20470;-75
2023/05/03 08:12:04;;;;;;;13.85;5.97;;;13.70;99.90;;;;;;5054138;28;20040;-75
2023/05/03 08:14:30;;;;;;;15.88;6.40;;;13.80;99.90;;;;;;5053640;28;20037;-75
2023/05/03 08:16:55;;;;;;;12.27;5.97;;;13.80;99.90;;;;;;5053880;28;20039;-75
2023/05/03 08:19:21;;;;;;;8.68;5.72;;;13.80;99.90;;;;;;5053602;28;20105;-76
2023/05/03 08:21:47;;;;;;;8.38;5.70;;;13.80;99.90;;;;;;5053778;28;20508;-75
2023/05/03 08:24:13;;;;;;;8.95;5.53;;;13.90;99.90;;;;;;5053264;28;20466;-76
2023/05/03 08:26:39;;;;;;;14.68;6.90;;;13.90;99.90;;;;;;5052947;28;20020;-75
2023/05/03 08:29:06;;;;;;;8.48;5.03;;;14.00;99.90;;;;;;5034907;28;20075;-75
2023/05/03 08:31:32;;;;;;;10.75;5.70;;;14.10;99.90;;;;;;5053114;28;20037;-75
2023/05/03 08:33:58;;;;;;;9.10;6.03;;;14.20;99.90;;;;;;5052922;28;20171;-74
2023/05/03 08:36:23;;;;;;;9.23;5.70;;;14.40;99.90;;;;;;5018128;28;20112;-75
2023/05/03 08:38:49;;;;;;;15.65;6.30;;;14.40;99.90;;;;;;5053381;28;20029;-75
2023/05/03 08:41:22;;;;;;;12.48;5.90;;;14.50;99.90;;;;;;5052496;28;20029;-76
2023/05/03 08:43:50;;;;;;;;;;;14.50;99.90;;;;;;5035994;28;20377;-75
2023/05/03 08:46:17;;;;;;;9.65;5.70;;;14.60;99.90;;;;;;5052978;28;19955;-76
2023/05/03 08:48:46;;;;;;;10.50;6.03;;;14.60;99.90;;;;;;5053774;28;20037;-76
2023/05/03 08:51:13;;;;;;;12.32;6.70;;;14.70;99.90;;;;;;5053149;28;20067;-77
2023/05/03 08:53:39;;;;;;;13.32;6.63;;;14.80;99.90;;;;;;5053010;28;20113;-78
2023/05/03 08:56:07;;;;;;;12.00;6.32;;;14.90;99.90;;;;;;5053167;28;20107;-77
2023/05/03 08:58:36;;;;;;;7.53;5.90;;;14.90;99.90;;;;;;5052500;28;20116;-77
2023/05/03 09:01:06;;;;;;;10.45;5.70;;;15.00;99.90;;;;;;5053468;28;20108;-76
2023/05/03 09:03:33;;;;;;;11.70;6.85;;;14.90;99.90;;;;;;5053055;28;20053;-76
2023/05/03 09:06:02;;;;;;;10.40;5.57;;;15.00;99.90;;;;;;5053594;28;20094;-75
2023/05/03 09:08:29;;;;;;;9.30;5.97;;;15.00;99.90;;;;;;5053421;28;20029;-75
2023/05/03 09:10:56;;;;;;;10.43;5.82;;;15.00;99.90;;;;;;5052761;28;20025;-75
2023/05/03 09:13:28;;;;;;;9.80;6.18;;;15.00;99.90;;;;;;5034478;28;20359;-76
2023/05/03 09:15:55;;;;;;;12.93;5.97;;;15.20;99.90;;;;;;5052718;28;20373;-75
2023/05/03 09:18:22;;;;;;;11.45;6.20;;;15.20;99.90;;;;;;5034550;28;20106;-76
2023/05/03 09:20:52;;;;;;;9.80;6.10;;;15.30;99.90;;;;;;5053313;28;20040;-75
2023/05/03 09:23:28;;;;;;;11.35;6.07;;;15.30;99.90;;;;;;5052685;28;20032;-76
2023/05/03 09:25:54;;;;;;;11.98;6.20;;;15.40;99.90;;;;;;5052840;28;20115;-76
2023/05/03 09:28:20;;;;;;;8.90;6.43;;;15.50;99.90;;;;;;5052140;28;20120;-76
2023/05/03 09:30:47;;;;;;;10.82;5.75;;;15.60;99.90;;;;;;5052912;28;20037;-76
2023/05/03 09:33:21;;;;;;;11.82;6.78;;;15.60;99.90;;;;;;5034835;28;20031;-76
2023/05/03 09:35:56;;;;;;;12.25;6.70;;;15.70;99.90;;;;;;5034282;28;20029;-76
2023/05/03 09:38:31;;;;;;;8.32;6.60;;;15.70;99.90;;;;;;5034278;28;20033;-76
2023/05/03 09:40:57;;;;;;;12.43;6.47;;;15.70;99.90;;;;;;5052376;28;20025;-76
2023/05/03 09:43:23;;;;;;;12.35;7.03;;;15.60;99.90;;;;;;5051751;28;20029;-76
2023/05/03 09:45:49;;;;;;;11.18;7.38;;;15.70;99.90;;;;;;5052090;28;20028;-76
2023/05/03 09:48:15;;;;;;;10.05;6.57;;;15.70;99.90;;;;;;5052338;28;20071;-76
2023/05/03 09:50:42;;;;;;;12.82;6.80;;;15.90;99.90;;;;;;5051924;28;20078;-76
2023/05/03 09:53:08;;;;;;;9.85;6.63;;;16.00;99.90;;;;;;5052252;28;20029;-76
2023/05/03 09:55:34;;;;;;;9.45;6.47;;;16.00;99.90;;;;;;5052407;28;20033;-76
2023/05/03 09:58:05;;;;;;;16.58;6.70;;;16.00;99.90;;;;;;5053389;28;20033;-76
2023/05/03 10:00:34;;;;;;;11.85;6.50;;;16.00;99.90;;;;;;5053429;28;20029;-76
2023/05/03 10:03:01;;;;;;;15.65;6.80;;;16.00;99.90;;;;;;5055098;28;20036;-76
2023/05/03 10:05:31;;;;;;;13.15;6.70;;;15.90;99.90;;;;;;5054740;28;20520;-76
2023/05/03 10:08:01;;;;;;;14.07;6.95;;;16.00;99.90;;;;;;5055189;28;20459;-75
2023/05/03 10:10:31;;;;;;;11.35;6.15;;;16.00;99.90;;;;;;5054543;28;20029;-76
2023/05/03 10:12:58;;;;;;;14.73;7.38;;;16.00;99.90;;;;;;5055273;28;20025;-75
2023/05/03 10:15:27;;;;;;;10.07;6.75;;;16.20;99.90;;;;;;5054614;28;20036;-76
2023/05/03 10:17:55;;;;;;;11.98;6.50;;;16.40;99.90;;;;;;5054498;28;20033;-76
2023/05/03 10:20:34;;;;;;;11.07;7.10;;;16.60;99.90;;;;;;5055737;28;20154;-76
2023/05/03 10:23:03;;;;;;;12.00;6.47;;;16.50;99.90;;;;;;5054078;28;20024;-76
2023/05/03 10:25:29;;;;;;;12.65;6.65;;;16.50;99.90;;;;;;5053952;28;20036;-76
2023/05/03 10:28:08;;;;;;;14.27;6.80;;;16.70;99.90;;;;;;5053239;28;20036;-76
2023/05/03 10:30:38;;;;;;;12.13;6.43;;;16.80;99.90;;;;;;5052084;28;20067;-76
2023/05/03 10:33:13;;;;;;;14.02;6.90;;;16.70;99.90;;;;;;5053141;28;20033;-76
2023/05/03 10:35:41;;;;;;;12.23;6.43;;;16.70;99.90;;;;;;5052108;28;20036;-76
2023/05/03 10:38:18;;;;;;;13.68;6.38;;;16.70;99.90;;;;;;5052808;28;20044;-76
2023/05/03 10:40:45;;;;;;;11.98;6.50;;;16.70;99.90;;;;;;5052149;28;20021;-77
2023/05/03 10:43:34;;;;;;;11.10;6.70;;;16.40;99.90;;;;;;5052813;28;20108;-76
2023/05/03 10:46:04;;;;;;;14.45;6.80;;;16.30;99.90;;;;;;5038144;28;20041;-75
2023/05/03 10:48:32;;;;;;;13.98;6.85;;;16.30;99.90;;;;;;5055527;28;20029;-76
2023/05/03 10:51:27;;;;;;;15.43;7.32;;;16.20;99.90;;;;;;5055879;28;20053;-76
2023/05/03 10:53:53;;;;;;;15.15;6.82;;;16.00;99.90;;;;;;5055809;28;20025;-77
2023/05/03 10:56:18;;;;;;;18.38;7.63;;;15.50;99.90;;;;;;5055578;28;20060;-76
2023/05/03 10:58:46;;;;;;;18.42;7.47;;;15.50;99.90;;;;;;5055007;28;20079;-75
2023/05/03 11:01:14;;;;;;;17.80;6.68;;;15.50;99.90;;;;;;5055173;28;20116;-77
2023/05/03 11:03:49;;;;;;;16.52;7.47;;;15.30;99.90;;;;;;5054873;28;20462;-76
2023/05/03 11:06:33;;;;;;;14.18;7.10;;;15.30;99.90;;;;;;5055542;28;20035;-76
2023/05/03 11:08:59;;;;;;;15.80;6.80;;;15.40;99.90;;;;;;5055592;28;20029;-76
2023/05/03 11:11:25;;;;;;;14.52;6.93;;;15.40;99.90;;;;;;5054696;28;20351;-76
2023/05/03 11:13:51;;;;;;;15.90;7.13;;;15.30;99.90;;;;;;5054921;28;20032;-76
2023/05/03 11:16:17;;;;;;;12.80;6.90;;;15.30;99.90;;;;;;5054851;28;20441;-76
2023/05/03 11:18:44;;;;;;;15.90;6.68;;;15.40;99.90;;;;;;5054339;28;20075;-75
2023/05/03 11:21:11;;;;;;;16.10;6.70;;;15.50;99.90;;;;;;5054474;28;20037;-74
2023/05/03 11:23:38;;;;;;;16.55;6.65;;;15.50;99.90;;;;;;5053917;28;20021;-75
2023/05/03 11:26:10;;;;;;;11.60;6.03;;;15.70;99.90;;;;;;5054654;28;20029;-75
2023/05/03 11:28:40;;;;;;;11.82;6.32;;;15.90;99.90;;;;;;5035995;28;20135;-76
2023/05/03 11:31:07;;;;;;;14.20;6.68;;;16.30;99.90;;;;;;5053910;28;20368;-76
2023/05/03 11:33:34;;;;;;;15.23;6.13;;;16.40;99.90;;;;;;5054005;28;20025;-77
2023/05/03 11:36:05;;;;;;;13.57;6.38;;;16.50;99.90;;;;;;5054663;28;20433;-77
2023/05/03 11:38:32;;;;;;;12.40;5.82;;;16.40;99.90;;;;;;5054322;28;20029;-77
2023/05/03 11:40:58;;;;;;;12.35;6.28;;;16.50;99.90;;;;;;5036412;28;20029;-76
2023/05/03 11:43:25;;;;;;;16.30;6.22;;;16.60;99.90;;;;;;5054319;28;20180;-76
2023/05/03 11:45:54;;;;;;;14.15;6.22;;;16.70;99.90;;;;;;5054112;28;20058;-76
2023/05/03 11:48:20;;;;;;;11.35;6.40;;;16.70;99.90;;;;;;5054224;28;20028;-76
2023/05/03 11:50:46;;;;;;;11.65;6.72;;;16.80;99.90;;;;;;5053588;28;20086;-76
2023/05/03 11:53:13;;;;;;;12.57;5.80;;;16.80;99.90;;;;;;5054100;28;20025;-76
2023/05/03 11:55:47;;;;;;;13.20;6.43;;;16.80;99.90;;;;;;5053650;28;20067;-76
2023/05/03 11:58:23;;;;;;;12.48;5.80;;;16.80;99.90;;;;;;5054130;28;20041;-76
2023/05/03 12:00:51;;;;;;;12.32;5.93;;;17.00;99.90;;;;;;5053757;28;20033;-75
2023/05/03 12:03:35;;;;;;;12.38;5.70;;;16.90;99.90;;;;;;5054206;28;20100;-75
2023/05/03 12:06:00;;;;;;;11.95;6.18;;;16.80;99.90;;;;;;5054222;28;20033;-75
2023/05/03 12:08:31;;;;;;;11.88;6.25;;;16.80;99.90;;;;;;5053828;28;20032;-76
2023/05/03 12:10:57;;;;;;;14.05;5.97;;;16.80;99.90;;;;;;5054166;28;20021;-75
2023/05/03 12:13:36;;;;;;;10.63;6.18;;;17.00;99.90;;;;;;5053966;28;20028;-75
2023/05/03 12:16:03;;;;;;;13.75;6.40;;;17.00;99.90;;;;;;5054522;28;20476;-75
2023/05/03 12:18:52;;;;;;;13.27;5.95;;;17.00;99.90;;;;;;5053565;28;20029;-76
2023/05/03 12:21:19;;;;;;;9.75;5.90;;;17.10;99.90;;;;;;5054304;28;20028;-78
2023/05/03 12:23:45;;;;;;;15.00;7.05;;;17.10;99.90;;;;;;5035715;28;20096;-77
2023/05/03 12:26:11;;;;;;;9.05;5.78;;;17.20;99.90;;;;;;5036414;28;20040;-76
2023/05/03 12:28:37;;;;;;;9.77;5.40;;;17.30;99.90;;;;;;5035349;28;20069;-77
2023/05/03 12:31:03;;;;;;;13.98;5.65;;;17.10;99.90;;;;;;5053912;28;20025;-76
2023/05/03 12:33:29;;;;;;;14.70;6.25;;;17.20;99.90;;;;;;5053529;28;20061;-77
2023/05/03 12:35:55;;;;;;;14.98;5.40;;;17.30;99.90;;;;;;5052834;28;20036;-75
2023/05/03 12:38:22;;;;;;;9.13;5.40;;;17.20;99.90;;;;;;5052838;28;20033;-76